sensor_id;sensor_type;location;lat;lon;timestamp;temperature;humidity
37322;DHT22;23697;48.684;9.032;2022-11-15T00:02:05;6.60;89.10
37322;DHT22;23697;48.684;9.032;2022-11-15T00:04:32;6.60;89.10
37322;DHT22;23697;48.684;9.032;2022-11-15T00:07:00;6.60;89.10
37322;DHT22;23697;48.684;9.032;2022-11-15T00:09:27;6.60;89.10
37322;DHT22;23697;48.684;9.032;2022-11-15T00:11:54;6.50;89.10
37322;DHT22;23697;48.684;9.032;2022-11-15T00:14:21;6.50;89.10
37322;DHT22;23697;48.684;9.032;2022-11-15T00:16:47;6.50;89.20
37322;DHT22;23697;48.684;9.032;2022-11-15T00:19:14;6.50;89.20
37322;DHT22;23697;48.684;9.032;2022-11-15T00:21:41;6.50;89.20
37322;DHT22;23697;48.684;9.032;2022-11-15T00:24:10;6.50;89.30
37322;DHT22;23697;48.684;9.032;2022-11-15T00:26:37;6.50;89.20
37322;DHT22;23697;48.684;9.032;2022-11-15T00:29:04;6.50;89.20
37322;DHT22;23697;48.684;9.032;2022-11-15T00:31:30;6.50;89.10
37322;DHT22;23697;48.684;9.032;2022-11-15T00:33:57;6.50;89.10
37322;DHT22;23697;48.684;9.032;2022-11-15T00:36:24;6.40;89.10
37322;DHT22;23697;48.684;9.032;2022-11-15T00:38:51;6.40;89.10
37322;DHT22;23697;48.684;9.032;2022-11-15T00:41:19;6.40;89.10
37322;DHT22;23697;48.684;9.032;2022-11-15T00:43:46;6.30;89.20
37322;DHT22;23697;48.684;9.032;2022-11-15T00:46:13;6.30;89.20
37322;DHT22;23697;48.684;9.032;2022-11-15T00:48:40;6.20;89.10
37322;DHT22;23697;48.684;9.032;2022-11-15T00:51:07;6.20;89.20
37322;DHT22;23697;48.684;9.032;2022-11-15T00:53:34;6.20;89.20
37322;DHT22;23697;48.684;9.032;2022-11-15T00:56:02;6.10;89.20
37322;DHT22;23697;48.684;9.032;2022-11-15T00:58:30;6.20;89.30
37322;DHT22;23697;48.684;9.032;2022-11-15T01:01:05;6.20;89.20
37322;DHT22;23697;48.684;9.032;2022-11-15T01:03:32;6.10;89.20
37322;DHT22;23697;48.684;9.032;2022-11-15T01:05:59;6.10;89.20
37322;DHT22;23697;48.684;9.032;2022-11-15T01:08:26;6.00;89.20
37322;DHT22;23697;48.684;9.032;2022-11-15T01:10:53;5.90;89.20
37322;DHT22;23697;48.684;9.032;2022-11-15T01:13:20;5.80;89.20
37322;DHT22;23697;48.684;9.032;2022-11-15T01:15:52;5.80;89.20
37322;DHT22;23697;48.684;9.032;2022-11-15T01:18:21;5.80;89.30
37322;DHT22;23697;48.684;9.032;2022-11-15T01:20:48;5.70;89.30
37322;DHT22;23697;48.684;9.032;2022-11-15T01:23:15;5.60;89.30
37322;DHT22;23697;48.684;9.032;2022-11-15T01:25:41;5.60;89.30
37322;DHT22;23697;48.684;9.032;2022-11-15T01:28:08;5.60;89.40
37322;DHT22;23697;48.684;9.032;2022-11-15T01:30:36;5.60;89.40
37322;DHT22;23697;48.684;9.032;2022-11-15T01:33:04;5.60;89.40
37322;DHT22;23697;48.684;9.032;2022-11-15T01:35:31;5.60;89.50
37322;DHT22;23697;48.684;9.032;2022-11-15T01:37:58;5.60;89.50
37322;DHT22;23697;48.684;9.032;2022-11-15T01:40:25;5.50;89.50
37322;DHT22;23697;48.684;9.032;2022-11-15T01:42:52;5.50;89.60
37322;DHT22;23697;48.684;9.032;2022-11-15T01:45:18;5.60;89.80
37322;DHT22;23697;48.684;9.032;2022-11-15T01:47:49;5.60;89.80
37322;DHT22;23697;48.684;9.032;2022-11-15T01:50:23;5.60;89.80
37322;DHT22;23697;48.684;9.032;2022-11-15T01:52:52;5.60;89.90
37322;DHT22;23697;48.684;9.032;2022-11-15T01:55:21;5.60;89.90
37322;DHT22;23697;48.684;9.032;2022-11-15T01:57:51;5.60;89.90
37322;DHT22;23697;48.684;9.032;2022-11-15T02:00:19;5.50;90.00
37322;DHT22;23697;48.684;9.032;2022-11-15T02:02:46;5.60;90.00
37322;DHT22;23697;48.684;9.032;2022-11-15T02:05:13;5.60;90.10
37322;DHT22;23697;48.684;9.032;2022-11-15T02:07:41;5.70;90.10
37322;DHT22;23697;48.684;9.032;2022-11-15T02:10:10;5.70;90.10
37322;DHT22;23697;48.684;9.032;2022-11-15T02:12:38;5.70;90.10
37322;DHT22;23697;48.684;9.032;2022-11-15T02:15:06;5.60;90.10
37322;DHT22;23697;48.684;9.032;2022-11-15T02:17:52;5.60;90.10
37322;DHT22;23697;48.684;9.032;2022-11-15T02:20:49;5.60;90.10
37322;DHT22;23697;48.684;9.032;2022-11-15T02:26:57;5.60;90.20
37322;DHT22;23697;48.684;9.032;2022-11-15T02:29:41;5.60;90.20
37322;DHT22;23697;48.684;9.032;2022-11-15T02:32:16;5.60;90.30
37322;DHT22;23697;48.684;9.032;2022-11-15T02:34:52;5.70;90.30
37322;DHT22;23697;48.684;9.032;2022-11-15T02:37:27;5.70;90.40
37322;DHT22;23697;48.684;9.032;2022-11-15T02:40:05;5.70;90.30
37322;DHT22;23697;48.684;9.032;2022-11-15T02:42:36;5.80;90.30
37322;DHT22;23697;48.684;9.032;2022-11-15T02:45:27;5.70;90.30
37322;DHT22;23697;48.684;9.032;2022-11-15T02:47:58;5.70;90.30
37322;DHT22;23697;48.684;9.032;2022-11-15T02:50:28;5.60;90.30
37322;DHT22;23697;48.684;9.032;2022-11-15T02:52:56;5.60;90.30
37322;DHT22;23697;48.684;9.032;2022-11-15T02:55:30;5.60;90.30
37322;DHT22;23697;48.684;9.032;2022-11-15T02:58:12;5.60;90.40
37322;DHT22;23697;48.684;9.032;2022-11-15T03:00:47;5.60;90.40
37322;DHT22;23697;48.684;9.032;2022-11-15T03:03:33;5.60;90.40
37322;DHT22;23697;48.684;9.032;2022-11-15T03:06:07;5.60;90.40
37322;DHT22;23697;48.684;9.032;2022-11-15T03:08:42;5.60;90.40
37322;DHT22;23697;48.684;9.032;2022-11-15T03:11:15;5.60;90.40
37322;DHT22;23697;48.684;9.032;2022-11-15T03:13:47;5.60;90.50
37322;DHT22;23697;48.684;9.032;2022-11-15T03:16:17;5.60;90.50
37322;DHT22;23697;48.684;9.032;2022-11-15T03:18:49;5.60;90.50
37322;DHT22;23697;48.684;9.032;2022-11-15T03:21:19;5.60;90.50
37322;DHT22;23697;48.684;9.032;2022-11-15T03:23:47;5.70;90.50
37322;DHT22;23697;48.684;9.032;2022-11-15T03:26:16;5.70;90.50
37322;DHT22;23697;48.684;9.032;2022-11-15T03:28:47;5.60;90.50
37322;DHT22;23697;48.684;9.032;2022-11-15T03:31:15;5.60;90.60
37322;DHT22;23697;48.684;9.032;2022-11-15T03:34:05;5.70;90.60
37322;DHT22;23697;48.684;9.032;2022-11-15T03:36:34;5.80;90.60
37322;DHT22;23697;48.684;9.032;2022-11-15T03:39:06;5.80;90.60
37322;DHT22;23697;48.684;9.032;2022-11-15T03:41:38;5.90;90.70
37322;DHT22;23697;48.684;9.032;2022-11-15T03:44:11;5.90;90.70
37322;DHT22;23697;48.684;9.032;2022-11-15T03:46:46;5.90;90.70
37322;DHT22;23697;48.684;9.032;2022-11-15T03:49:18;5.90;90.70
37322;DHT22;23697;48.684;9.032;2022-11-15T03:51:47;6.00;90.70
37322;DHT22;23697;48.684;9.032;2022-11-15T03:54:14;6.00;90.70
37322;DHT22;23697;48.684;9.032;2022-11-15T03:56:41;6.10;90.70
37322;DHT22;23697;48.684;9.032;2022-11-15T03:59:07;6.00;90.60
37322;DHT22;23697;48.684;9.032;2022-11-15T04:01:34;6.00;90.60
37322;DHT22;23697;48.684;9.032;2022-11-15T04:04:01;6.00;90.60
37322;DHT22;23697;48.684;9.032;2022-11-15T04:06:29;6.10;90.60
37322;DHT22;23697;48.684;9.032;2022-11-15T04:08:56;6.10;90.60
37322;DHT22;23697;48.684;9.032;2022-11-15T04:11:23;6.10;90.70
37322;DHT22;23697;48.684;9.032;2022-11-15T04:13:50;6.10;90.70
37322;DHT22;23697;48.684;9.032;2022-11-15T04:16:16;6.10;90.70
37322;DHT22;23697;48.684;9.032;2022-11-15T04:18:43;6.10;90.70
37322;DHT22;23697;48.684;9.032;2022-11-15T04:21:10;6.10;90.60
37322;DHT22;23697;48.684;9.032;2022-11-15T04:23:56;6.10;90.60
37322;DHT22;23697;48.684;9.032;2022-11-15T04:26:41;6.10;90.60
37322;DHT22;23697;48.684;9.032;2022-11-15T04:29:07;6.10;90.60
37322;DHT22;23697;48.684;9.032;2022-11-15T04:31:54;6.10;90.70
37322;DHT22;23697;48.684;9.032;2022-11-15T04:34:20;6.10;90.70
37322;DHT22;23697;48.684;9.032;2022-11-15T04:36:47;6.10;90.70
37322;DHT22;23697;48.684;9.032;2022-11-15T04:39:42;6.20;90.70
37322;DHT22;23697;48.684;9.032;2022-11-15T04:42:10;6.20;90.70
37322;DHT22;23697;48.684;9.032;2022-11-15T04:44:37;6.20;90.70
37322;DHT22;23697;48.684;9.032;2022-11-15T04:47:04;6.10;90.60
37322;DHT22;23697;48.684;9.032;2022-11-15T04:49:31;6.10;90.60
37322;DHT22;23697;48.684;9.032;2022-11-15T04:51:58;6.10;90.60
37322;DHT22;23697;48.684;9.032;2022-11-15T04:54:25;6.20;90.70
37322;DHT22;23697;48.684;9.032;2022-11-15T04:56:53;6.30;90.70
37322;DHT22;23697;48.684;9.032;2022-11-15T04:59:20;6.20;90.70
37322;DHT22;23697;48.684;9.032;2022-11-15T05:01:47;6.20;90.60
37322;DHT22;23697;48.684;9.032;2022-11-15T05:04:13;6.10;90.60
37322;DHT22;23697;48.684;9.032;2022-11-15T05:06:46;6.10;90.60
37322;DHT22;23697;48.684;9.032;2022-11-15T05:09:13;5.90;90.60
37322;DHT22;23697;48.684;9.032;2022-11-15T05:11:40;5.90;90.60
37322;DHT22;23697;48.684;9.032;2022-11-15T05:14:09;5.90;90.50
37322;DHT22;23697;48.684;9.032;2022-11-15T05:16:35;5.90;90.50
37322;DHT22;23697;48.684;9.032;2022-11-15T05:19:02;5.90;90.50
37322;DHT22;23697;48.684;9.032;2022-11-15T05:21:30;5.80;90.60
37322;DHT22;23697;48.684;9.032;2022-11-15T05:23:57;5.90;90.70
37322;DHT22;23697;48.684;9.032;2022-11-15T05:26:24;6.10;90.70
37322;DHT22;23697;48.684;9.032;2022-11-15T05:28:52;6.00;90.70
37322;DHT22;23697;48.684;9.032;2022-11-15T05:31:21;6.00;90.70
37322;DHT22;23697;48.684;9.032;2022-11-15T05:33:50;6.00;90.70
37322;DHT22;23697;48.684;9.032;2022-11-15T05:36:21;6.00;90.70
37322;DHT22;23697;48.684;9.032;2022-11-15T05:38:52;6.00;90.70
37322;DHT22;23697;48.684;9.032;2022-11-15T05:41:22;6.00;90.70
37322;DHT22;23697;48.684;9.032;2022-11-15T05:43:55;5.90;90.70
37322;DHT22;23697;48.684;9.032;2022-11-15T05:46:24;5.90;90.70
37322;DHT22;23697;48.684;9.032;2022-11-15T05:48:52;6.00;90.80
37322;DHT22;23697;48.684;9.032;2022-11-15T05:51:20;6.00;90.80
37322;DHT22;23697;48.684;9.032;2022-11-15T05:53:48;6.00;90.70
37322;DHT22;23697;48.684;9.032;2022-11-15T05:56:15;6.10;90.70
37322;DHT22;23697;48.684;9.032;2022-11-15T05:58:42;6.10;90.70
37322;DHT22;23697;48.684;9.032;2022-11-15T06:01:09;6.10;90.70
37322;DHT22;23697;48.684;9.032;2022-11-15T06:03:38;6.10;90.60
37322;DHT22;23697;48.684;9.032;2022-11-15T06:06:05;6.00;90.60
37322;DHT22;23697;48.684;9.032;2022-11-15T06:08:32;5.90;90.60
37322;DHT22;23697;48.684;9.032;2022-11-15T06:11:03;5.90;90.60
37322;DHT22;23697;48.684;9.032;2022-11-15T06:13:30;5.90;90.60
37322;DHT22;23697;48.684;9.032;2022-11-15T06:15:58;5.80;90.60
37322;DHT22;23697;48.684;9.032;2022-11-15T06:18:25;5.90;90.60
37322;DHT22;23697;48.684;9.032;2022-11-15T06:20:53;5.90;90.60
37322;DHT22;23697;48.684;9.032;2022-11-15T06:23:20;5.90;90.60
37322;DHT22;23697;48.684;9.032;2022-11-15T06:25:46;5.90;90.60
37322;DHT22;23697;48.684;9.032;2022-11-15T06:28:13;5.90;90.60
37322;DHT22;23697;48.684;9.032;2022-11-15T06:30:40;5.90;90.60
37322;DHT22;23697;48.684;9.032;2022-11-15T06:33:07;5.80;90.60
37322;DHT22;23697;48.684;9.032;2022-11-15T06:35:35;5.80;90.60
37322;DHT22;23697;48.684;9.032;2022-11-15T06:38:06;5.90;90.60
37322;DHT22;23697;48.684;9.032;2022-11-15T06:40:34;5.90;90.60
37322;DHT22;23697;48.684;9.032;2022-11-15T06:43:02;5.90;90.70
37322;DHT22;23697;48.684;9.032;2022-11-15T06:45:29;5.80;90.60
37322;DHT22;23697;48.684;9.032;2022-11-15T06:47:56;5.80;90.60
37322;DHT22;23697;48.684;9.032;2022-11-15T06:50:23;5.90;90.70
37322;DHT22;23697;48.684;9.032;2022-11-15T06:52:50;6.00;90.80
37322;DHT22;23697;48.684;9.032;2022-11-15T06:55:18;6.10;90.80
37322;DHT22;23697;48.684;9.032;2022-11-15T06:57:47;6.20;90.80
37322;DHT22;23697;48.684;9.032;2022-11-15T07:00:15;6.20;90.80
37322;DHT22;23697;48.684;9.032;2022-11-15T07:02:42;6.20;90.90
37322;DHT22;23697;48.684;9.032;2022-11-15T07:05:09;6.20;90.80
37322;DHT22;23697;48.684;9.032;2022-11-15T07:07:36;6.30;90.90
37322;DHT22;23697;48.684;9.032;2022-11-15T07:10:04;6.40;90.90
37322;DHT22;23697;48.684;9.032;2022-11-15T07:12:32;6.60;91.00
37322;DHT22;23697;48.684;9.032;2022-11-15T07:14:59;6.60;90.90
37322;DHT22;23697;48.684;9.032;2022-11-15T07:17:26;6.60;90.90
37322;DHT22;23697;48.684;9.032;2022-11-15T07:19:53;6.70;90.80
37322;DHT22;23697;48.684;9.032;2022-11-15T07:22:20;6.80;90.80
37322;DHT22;23697;48.684;9.032;2022-11-15T07:24:49;6.80;90.70
37322;DHT22;23697;48.684;9.032;2022-11-15T07:27:16;6.90;90.70
37322;DHT22;23697;48.684;9.032;2022-11-15T07:29:44;7.00;90.70
37322;DHT22;23697;48.684;9.032;2022-11-15T07:32:11;7.10;90.60
37322;DHT22;23697;48.684;9.032;2022-11-15T07:34:38;7.20;90.60
37322;DHT22;23697;48.684;9.032;2022-11-15T07:37:05;7.40;90.60
37322;DHT22;23697;48.684;9.032;2022-11-15T07:39:32;7.50;90.50
37322;DHT22;23697;48.684;9.032;2022-11-15T07:41:59;7.70;90.40
37322;DHT22;23697;48.684;9.032;2022-11-15T07:44:45;7.90;90.40
37322;DHT22;23697;48.684;9.032;2022-11-15T07:47:12;8.10;90.20
37322;DHT22;23697;48.684;9.032;2022-11-15T07:49:39;8.20;89.80
37322;DHT22;23697;48.684;9.032;2022-11-15T07:52:06;8.40;89.70
37322;DHT22;23697;48.684;9.032;2022-11-15T07:54:33;8.40;89.40
37322;DHT22;23697;48.684;9.032;2022-11-15T07:56:59;8.50;89.10
37322;DHT22;23697;48.684;9.032;2022-11-15T07:59:26;8.60;88.80
37322;DHT22;23697;48.684;9.032;2022-11-15T08:01:54;8.60;88.50
37322;DHT22;23697;48.684;9.032;2022-11-15T08:04:21;8.70;88.00
37322;DHT22;23697;48.684;9.032;2022-11-15T08:06:48;8.80;88.00
37322;DHT22;23697;48.684;9.032;2022-11-15T08:09:15;8.80;87.90
37322;DHT22;23697;48.684;9.032;2022-11-15T08:11:42;8.90;87.80
37322;DHT22;23697;48.684;9.032;2022-11-15T08:14:09;8.90;87.60
37322;DHT22;23697;48.684;9.032;2022-11-15T08:16:35;9.00;87.50
37322;DHT22;23697;48.684;9.032;2022-11-15T08:19:04;9.10;87.10
37322;DHT22;23697;48.684;9.032;2022-11-15T08:21:31;9.20;87.00
37322;DHT22;23697;48.684;9.032;2022-11-15T08:23:57;9.30;86.50
37322;DHT22;23697;48.684;9.032;2022-11-15T08:26:24;9.40;86.20
37322;DHT22;23697;48.684;9.032;2022-11-15T08:28:54;9.60;85.90
37322;DHT22;23697;48.684;9.032;2022-11-15T08:31:21;9.80;86.00
37322;DHT22;23697;48.684;9.032;2022-11-15T08:33:48;10.00;85.70
37322;DHT22;23697;48.684;9.032;2022-11-15T08:36:17;10.20;85.10
37322;DHT22;23697;48.684;9.032;2022-11-15T08:38:44;10.40;84.00
37322;DHT22;23697;48.684;9.032;2022-11-15T08:41:14;10.60;83.30
37322;DHT22;23697;48.684;9.032;2022-11-15T08:43:43;10.70;81.90
37322;DHT22;23697;48.684;9.032;2022-11-15T08:46:12;10.80;81.80
37322;DHT22;23697;48.684;9.032;2022-11-15T08:48:39;11.00;81.50
37322;DHT22;23697;48.684;9.032;2022-11-15T08:51:06;11.10;80.90
37322;DHT22;23697;48.684;9.032;2022-11-15T08:53:35;11.40;80.70
37322;DHT22;23697;48.684;9.032;2022-11-15T08:56:02;11.60;80.50
37322;DHT22;23697;48.684;9.032;2022-11-15T08:58:29;11.80;79.40
37322;DHT22;23697;48.684;9.032;2022-11-15T09:00:56;11.90;78.40
37322;DHT22;23697;48.684;9.032;2022-11-15T09:03:23;11.90;76.50
37322;DHT22;23697;48.684;9.032;2022-11-15T09:05:54;11.80;76.80
37322;DHT22;23697;48.684;9.032;2022-11-15T09:08:22;12.00;77.40
37322;DHT22;23697;48.684;9.032;2022-11-15T09:10:50;12.00;76.00
37322;DHT22;23697;48.684;9.032;2022-11-15T09:13:17;12.00;77.10
37322;DHT22;23697;48.684;9.032;2022-11-15T09:15:44;12.00;76.80
37322;DHT22;23697;48.684;9.032;2022-11-15T09:18:11;12.00;76.90
37322;DHT22;23697;48.684;9.032;2022-11-15T09:20:38;12.10;77.40
37322;DHT22;23697;48.684;9.032;2022-11-15T09:23:05;12.10;77.60
37322;DHT22;23697;48.684;9.032;2022-11-15T09:25:32;12.30;77.60
37322;DHT22;23697;48.684;9.032;2022-11-15T09:28:00;12.40;76.00
37322;DHT22;23697;48.684;9.032;2022-11-15T09:30:31;12.50;76.00
37322;DHT22;23697;48.684;9.032;2022-11-15T09:32:58;12.60;76.00
37322;DHT22;23697;48.684;9.032;2022-11-15T09:35:25;12.60;75.90
37322;DHT22;23697;48.684;9.032;2022-11-15T09:37:52;12.60;74.40
37322;DHT22;23697;48.684;9.032;2022-11-15T09:40:19;12.60;75.20
37322;DHT22;23697;48.684;9.032;2022-11-15T09:43:04;12.60;73.60
37322;DHT22;23697;48.684;9.032;2022-11-15T09:45:40;12.60;75.00
37322;DHT22;23697;48.684;9.032;2022-11-15T09:48:39;12.70;75.70
37322;DHT22;23697;48.684;9.032;2022-11-15T09:51:16;12.60;74.90
37322;DHT22;23697;48.684;9.032;2022-11-15T09:53:50;12.60;75.10
37322;DHT22;23697;48.684;9.032;2022-11-15T09:56:21;12.60;74.80
37322;DHT22;23697;48.684;9.032;2022-11-15T09:58:57;12.60;75.10
37322;DHT22;23697;48.684;9.032;2022-11-15T10:01:36;12.60;75.10
37322;DHT22;23697;48.684;9.032;2022-11-15T10:04:05;12.60;75.60
37322;DHT22;23697;48.684;9.032;2022-11-15T10:06:34;12.60;75.60
37322;DHT22;23697;48.684;9.032;2022-11-15T10:09:06;12.60;75.50
37322;DHT22;23697;48.684;9.032;2022-11-15T10:11:35;12.70;75.70
37322;DHT22;23697;48.684;9.032;2022-11-15T10:14:10;12.70;76.30
37322;DHT22;23697;48.684;9.032;2022-11-15T10:17:02;12.80;75.80
37322;DHT22;23697;48.684;9.032;2022-11-15T10:19:38;12.80;75.60
37322;DHT22;23697;48.684;9.032;2022-11-15T10:22:18;12.80;74.60
37322;DHT22;23697;48.684;9.032;2022-11-15T10:24:48;12.90;75.10
37322;DHT22;23697;48.684;9.032;2022-11-15T10:27:18;12.90;75.90
37322;DHT22;23697;48.684;9.032;2022-11-15T10:29:48;13.00;76.20
37322;DHT22;23697;48.684;9.032;2022-11-15T10:32:17;12.90;74.00
37322;DHT22;23697;48.684;9.032;2022-11-15T10:34:44;12.90;74.30
37322;DHT22;23697;48.684;9.032;2022-11-15T10:37:11;12.90;75.30
37322;DHT22;23697;48.684;9.032;2022-11-15T10:39:38;12.90;74.10
37322;DHT22;23697;48.684;9.032;2022-11-15T10:42:16;12.90;74.90
37322;DHT22;23697;48.684;9.032;2022-11-15T10:44:45;12.90;74.50
37322;DHT22;23697;48.684;9.032;2022-11-15T10:47:33;12.90;75.40
37322;DHT22;23697;48.684;9.032;2022-11-15T10:50:02;12.90;75.50
37322;DHT22;23697;48.684;9.032;2022-11-15T10:52:30;12.90;74.90
37322;DHT22;23697;48.684;9.032;2022-11-15T10:55:03;12.90;73.70
37322;DHT22;23697;48.684;9.032;2022-11-15T10:57:33;12.80;74.50
37322;DHT22;23697;48.684;9.032;2022-11-15T11:00:06;12.70;74.00
37322;DHT22;23697;48.684;9.032;2022-11-15T11:02:34;12.70;75.00
37322;DHT22;23697;48.684;9.032;2022-11-15T11:05:04;12.70;75.50
37322;DHT22;23697;48.684;9.032;2022-11-15T11:07:33;12.70;74.80
37322;DHT22;23697;48.684;9.032;2022-11-15T11:10:02;12.70;75.40
37322;DHT22;23697;48.684;9.032;2022-11-15T11:12:33;12.70;75.70
37322;DHT22;23697;48.684;9.032;2022-11-15T11:15:09;12.80;75.40
37322;DHT22;23697;48.684;9.032;2022-11-15T11:17:50;12.80;75.40
37322;DHT22;23697;48.684;9.032;2022-11-15T11:20:22;12.90;75.60
37322;DHT22;23697;48.684;9.032;2022-11-15T11:23:01;13.00;75.90
37322;DHT22;23697;48.684;9.032;2022-11-15T11:25:34;13.10;76.00
37322;DHT22;23697;48.684;9.032;2022-11-15T11:28:18;13.10;75.80
37322;DHT22;23697;48.684;9.032;2022-11-15T11:30:57;13.20;75.40
37322;DHT22;23697;48.684;9.032;2022-11-15T11:33:29;13.20;74.50
37322;DHT22;23697;48.684;9.032;2022-11-15T11:36:06;13.30;75.00
37322;DHT22;23697;48.684;9.032;2022-11-15T11:38:50;13.30;75.20
37322;DHT22;23697;48.684;9.032;2022-11-15T11:41:30;13.30;74.70
37322;DHT22;23697;48.684;9.032;2022-11-15T11:44:10;13.30;74.80
37322;DHT22;23697;48.684;9.032;2022-11-15T11:46:55;13.40;74.20
37322;DHT22;23697;48.684;9.032;2022-11-15T11:49:26;13.50;74.50
37322;DHT22;23697;48.684;9.032;2022-11-15T11:52:00;13.50;74.30
37322;DHT22;23697;48.684;9.032;2022-11-15T11:54:33;13.50;74.20
37322;DHT22;23697;48.684;9.032;2022-11-15T11:57:05;13.60;74.20
37322;DHT22;23697;48.684;9.032;2022-11-15T11:59:39;13.60;75.10
37322;DHT22;23697;48.684;9.032;2022-11-15T12:02:14;13.60;74.20
37322;DHT22;23697;48.684;9.032;2022-11-15T12:04:45;13.60;73.60
37322;DHT22;23697;48.684;9.032;2022-11-15T12:07:19;13.60;73.50
37322;DHT22;23697;48.684;9.032;2022-11-15T12:09:51;13.60;73.90
37322;DHT22;23697;48.684;9.032;2022-11-15T12:12:27;13.60;74.10
37322;DHT22;23697;48.684;9.032;2022-11-15T12:14:59;13.50;74.10
37322;DHT22;23697;48.684;9.032;2022-11-15T12:17:29;13.50;74.00
37322;DHT22;23697;48.684;9.032;2022-11-15T12:19:58;13.40;74.30
37322;DHT22;23697;48.684;9.032;2022-11-15T12:22:34;13.40;74.60
37322;DHT22;23697;48.684;9.032;2022-11-15T12:25:06;13.40;74.60
37322;DHT22;23697;48.684;9.032;2022-11-15T12:27:38;13.30;75.10
37322;DHT22;23697;48.684;9.032;2022-11-15T12:30:11;13.20;75.10
37322;DHT22;23697;48.684;9.032;2022-11-15T12:32:50;13.20;74.90
37322;DHT22;23697;48.684;9.032;2022-11-15T12:35:25;13.10;75.00
37322;DHT22;23697;48.684;9.032;2022-11-15T12:37:53;13.10;75.60
37322;DHT22;23697;48.684;9.032;2022-11-15T12:40:35;13.10;75.60
37322;DHT22;23697;48.684;9.032;2022-11-15T12:46:12;13.10;76.00
37322;DHT22;23697;48.684;9.032;2022-11-15T12:48:52;13.20;75.80
37322;DHT22;23697;48.684;9.032;2022-11-15T12:51:21;13.20;75.60
37322;DHT22;23697;48.684;9.032;2022-11-15T12:53:48;13.10;75.40
37322;DHT22;23697;48.684;9.032;2022-11-15T12:56:21;13.10;75.60
37322;DHT22;23697;48.684;9.032;2022-11-15T12:58:52;13.10;75.70
37322;DHT22;23697;48.684;9.032;2022-11-15T13:01:57;13.10;75.60
37322;DHT22;23697;48.684;9.032;2022-11-15T13:04:30;13.10;75.60
37322;DHT22;23697;48.684;9.032;2022-11-15T13:06:59;13.10;76.20
37322;DHT22;23697;48.684;9.032;2022-11-15T13:09:52;13.10;76.20
37322;DHT22;23697;48.684;9.032;2022-11-15T13:12:49;13.10;75.90
37322;DHT22;23697;48.684;9.032;2022-11-15T13:15:34;13.10;75.80
37322;DHT22;23697;48.684;9.032;2022-11-15T13:18:25;13.10;75.90
37322;DHT22;23697;48.684;9.032;2022-11-15T13:20:54;13.10;76.20
37322;DHT22;23697;48.684;9.032;2022-11-15T13:23:21;13.10;76.20
37322;DHT22;23697;48.684;9.032;2022-11-15T13:28:47;13.10;76.50
37322;DHT22;23697;48.684;9.032;2022-11-15T13:31:28;13.00;76.80
37322;DHT22;23697;48.684;9.032;2022-11-15T13:33:58;13.00;76.90
37322;DHT22;23697;48.684;9.032;2022-11-15T13:36:29;13.00;77.10
37322;DHT22;23697;48.684;9.032;2022-11-15T13:38:59;13.00;77.00
37322;DHT22;23697;48.684;9.032;2022-11-15T13:41:27;12.90;77.40
37322;DHT22;23697;48.684;9.032;2022-11-15T13:43:56;12.90;77.20
37322;DHT22;23697;48.684;9.032;2022-11-15T13:46:25;12.90;77.80
37322;DHT22;23697;48.684;9.032;2022-11-15T13:48:55;12.80;78.10
37322;DHT22;23697;48.684;9.032;2022-11-15T13:51:28;12.80;78.60
37322;DHT22;23697;48.684;9.032;2022-11-15T13:53:58;12.70;78.40
37322;DHT22;23697;48.684;9.032;2022-11-15T13:56:29;12.70;78.90
37322;DHT22;23697;48.684;9.032;2022-11-15T13:58:57;12.70;79.30
37322;DHT22;23697;48.684;9.032;2022-11-15T14:01:25;12.60;79.70
37322;DHT22;23697;48.684;9.032;2022-11-15T14:03:57;12.60;79.90
37322;DHT22;23697;48.684;9.032;2022-11-15T14:06:27;12.60;80.20
37322;DHT22;23697;48.684;9.032;2022-11-15T14:09:04;12.50;80.30
37322;DHT22;23697;48.684;9.032;2022-11-15T14:11:49;12.50;80.40
37322;DHT22;23697;48.684;9.032;2022-11-15T14:14:19;12.50;79.80
37322;DHT22;23697;48.684;9.032;2022-11-15T14:16:49;12.50;80.10
37322;DHT22;23697;48.684;9.032;2022-11-15T14:19:36;12.60;80.00
37322;DHT22;23697;48.684;9.032;2022-11-15T14:22:22;12.60;80.20
37322;DHT22;23697;48.684;9.032;2022-11-15T14:25:16;12.60;80.20
37322;DHT22;23697;48.684;9.032;2022-11-15T14:27:44;12.60;79.90
37322;DHT22;23697;48.684;9.032;2022-11-15T14:30:15;12.60;79.60
37322;DHT22;23697;48.684;9.032;2022-11-15T14:32:45;12.60;79.80
37322;DHT22;23697;48.684;9.032;2022-11-15T14:35:15;12.60;80.20
37322;DHT22;23697;48.684;9.032;2022-11-15T14:37:43;12.60;80.30
37322;DHT22;23697;48.684;9.032;2022-11-15T14:40:13;12.50;79.90
37322;DHT22;23697;48.684;9.032;2022-11-15T14:42:40;12.50;79.90
37322;DHT22;23697;48.684;9.032;2022-11-15T14:45:11;12.40;79.80
37322;DHT22;23697;48.684;9.032;2022-11-15T14:47:39;12.40;79.90
37322;DHT22;23697;48.684;9.032;2022-11-15T14:50:06;12.40;80.10
37322;DHT22;23697;48.684;9.032;2022-11-15T14:52:33;12.30;80.10
37322;DHT22;23697;48.684;9.032;2022-11-15T14:55:08;12.30;80.50
37322;DHT22;23697;48.684;9.032;2022-11-15T14:57:37;12.20;80.60
37322;DHT22;23697;48.684;9.032;2022-11-15T15:00:04;12.10;80.20
37322;DHT22;23697;48.684;9.032;2022-11-15T15:02:31;12.20;80.10
37322;DHT22;23697;48.684;9.032;2022-11-15T15:04:58;12.10;80.20
37322;DHT22;23697;48.684;9.032;2022-11-15T15:07:27;12.10;80.00
37322;DHT22;23697;48.684;9.032;2022-11-15T15:09:54;12.10;80.40
37322;DHT22;23697;48.684;9.032;2022-11-15T15:12:23;12.10;80.50
37322;DHT22;23697;48.684;9.032;2022-11-15T15:14:50;12.10;81.00
37322;DHT22;23697;48.684;9.032;2022-11-15T15:17:17;12.00;81.10
37322;DHT22;23697;48.684;9.032;2022-11-15T15:19:44;12.00;81.30
37322;DHT22;23697;48.684;9.032;2022-11-15T15:22:14;11.90;81.60
37322;DHT22;23697;48.684;9.032;2022-11-15T15:24:41;11.80;81.80
37322;DHT22;23697;48.684;9.032;2022-11-15T15:27:08;11.80;82.10
37322;DHT22;23697;48.684;9.032;2022-11-15T15:29:36;11.70;82.50
37322;DHT22;23697;48.684;9.032;2022-11-15T15:32:03;11.60;82.80
37322;DHT22;23697;48.684;9.032;2022-11-15T15:34:30;11.60;82.80
37322;DHT22;23697;48.684;9.032;2022-11-15T15:37:08;11.60;82.70
37322;DHT22;23697;48.684;9.032;2022-11-15T15:39:35;11.60;82.70
37322;DHT22;23697;48.684;9.032;2022-11-15T15:42:02;11.50;82.70
37322;DHT22;23697;48.684;9.032;2022-11-15T15:44:30;11.40;83.00
37322;DHT22;23697;48.684;9.032;2022-11-15T15:46:58;11.40;83.00
37322;DHT22;23697;48.684;9.032;2022-11-15T15:49:25;11.40;83.00
37322;DHT22;23697;48.684;9.032;2022-11-15T15:52:02;11.40;83.10
37322;DHT22;23697;48.684;9.032;2022-11-15T15:54:28;11.30;83.20
37322;DHT22;23697;48.684;9.032;2022-11-15T15:56:55;11.30;83.20
37322;DHT22;23697;48.684;9.032;2022-11-15T15:59:22;11.30;83.40
37322;DHT22;23697;48.684;9.032;2022-11-15T16:01:49;11.20;83.50
37322;DHT22;23697;48.684;9.032;2022-11-15T16:04:17;11.20;83.60
37322;DHT22;23697;48.684;9.032;2022-11-15T16:06:44;11.20;83.50
37322;DHT22;23697;48.684;9.032;2022-11-15T16:09:13;11.20;83.50
37322;DHT22;23697;48.684;9.032;2022-11-15T16:12:06;11.20;83.40